Time;durP1;ratioP1;P1;durP2;ratioP2;P2;SDS_P1;SDS_P2;PMS_P1;PMS_P2;Temp;Humidity;BMP_temperature;BMP_pressure;BME280_temperature;BME280_humidity;BME280_pressure;Samples;Min_cycle;Max_cycle;Signal;HPM_P1;HPM_P2
2022/06/03 00:01:58;0.00;0.00;0.62;0.00;0.00;0.62;3.57;3.27;;;28.30;24.40;;;;;;2270964;61;20885;-52
2022/06/03 00:05:27;0.00;0.00;0.62;0.00;0.00;0.62;4.43;4.03;;;28.20;24.40;;;;;;2272464;60;20893;-54
2022/06/03 00:08:39;0.00;0.00;0.62;0.00;0.00;0.62;5.40;3.53;;;28.20;24.40;;;;;;2269363;60;20361;-57
2022/06/03 00:12:14;0.00;0.00;0.62;0.00;0.00;0.62;3.90;3.60;;;28.20;24.40;;;;;;2272493;60;20445;-54
2022/06/03 00:15:31;0.00;0.00;0.62;0.00;0.00;0.62;3.60;3.00;;;28.20;24.40;;;;;;2259110;61;20396;-54
2022/06/03 00:18:57;0.00;0.00;0.62;0.00;0.00;0.62;3.07;2.80;;;28.20;24.50;;;;;;2272806;60;20971;-54
2022/06/03 00:22:05;0.00;0.00;0.62;0.00;0.00;0.62;4.17;3.77;;;28.20;24.50;;;;;;2273068;60;20394;-55
2022/06/03 00:25:07;0.00;0.00;0.62;0.00;0.00;0.62;3.30;3.00;;;28.10;24.40;;;;;;2271890;60;20358;-51
2022/06/03 00:28:12;0.00;0.00;0.62;0.00;0.00;0.62;2.93;2.63;;;28.10;24.40;;;;;;2273205;60;20389;-50
2022/06/03 00:31:14;0.00;0.00;0.62;0.00;0.00;0.62;4.57;3.70;;;28.10;24.40;;;;;;2271435;60;20358;-56
2022/06/03 00:34:34;0.00;0.00;0.62;0.00;0.00;0.62;4.00;3.53;;;28.10;24.40;;;;;;2272987;60;20357;-56
2022/06/03 00:37:34;0.00;0.00;0.62;0.00;0.00;0.62;3.53;3.23;;;28.10;24.40;;;;;;2273365;60;20365;-52
2022/06/03 00:41:01;0.00;0.00;0.62;0.00;0.00;0.62;3.70;3.40;;;28.10;24.40;;;;;;2272240;60;20842;-52
2022/06/03 00:44:03;0.00;0.00;0.62;0.00;0.00;0.62;3.50;3.17;;;28.10;24.40;;;;;;2273184;60;20409;-53
2022/06/03 00:47:15;0.00;0.00;0.62;0.00;0.00;0.62;4.17;3.30;;;28.10;24.40;;;;;;2271804;60;20805;-54
2022/06/03 00:50:56;0.00;0.00;0.62;0.00;0.00;0.62;3.73;3.43;;;28.10;24.90;;;;;;2273374;60;20397;-55
2022/06/03 00:54:03;0.00;0.00;0.62;0.00;0.00;0.62;3.80;3.50;;;28.10;24.40;;;;;;2271980;60;20454;-55
2022/06/03 00:57:12;0.00;0.00;0.62;0.00;0.00;0.62;3.97;3.63;;;28.00;24.30;;;;;;2273056;60;20374;-49
2022/06/03 01:00:09;0.00;0.00;0.62;0.00;0.00;0.62;4.77;3.50;;;28.00;24.30;;;;;;2272285;60;20404;-51
2022/06/03 01:03:14;0.00;0.00;0.62;0.00;0.00;0.62;4.23;3.83;;;28.00;24.20;;;;;;2272669;60;20370;-52
2022/06/03 01:06:23;0.00;0.00;0.62;0.00;0.00;0.62;4.70;4.30;;;28.00;24.20;;;;;;2273229;61;20377;-52
2022/06/03 01:09:26;0.00;0.00;0.62;0.00;0.00;0.62;4.83;4.40;;;27.90;24.10;;;;;;2271749;60;20856;-53
2022/06/03 01:12:41;0.00;0.00;0.62;0.00;0.00;0.62;7.87;4.03;;;27.90;24.10;;;;;;2272972;61;20396;-52
2022/06/03 01:15:39;0.00;0.00;0.62;0.00;0.00;0.62;4.53;4.10;;;27.80;24.00;;;;;;2271813;60;20366;-52
2022/06/03 01:18:50;0.00;0.00;0.62;0.00;0.00;0.62;5.93;4.10;;;27.90;24.10;;;;;;2272610;60;20423;-56
2022/06/03 01:21:49;0.00;0.00;0.62;0.00;0.00;0.62;5.53;4.87;;;27.80;24.00;;;;;;2273003;60;20885;-53
2022/06/03 01:25:23;0.00;0.00;0.62;0.00;0.00;0.62;4.60;4.20;;;27.80;24.00;;;;;;2272298;60;20409;-55
2022/06/03 01:29:08;0.00;0.00;0.62;0.00;0.00;0.62;4.00;3.53;;;27.70;24.00;;;;;;2273440;60;20390;-57
2022/06/03 01:32:53;0.00;0.00;0.62;0.00;0.00;0.62;4.00;3.60;;;27.70;24.10;;;;;;2266125;60;20369;-55
2022/06/03 01:36:04;0.00;0.00;0.62;0.00;0.00;0.62;4.50;4.10;;;27.60;24.00;;;;;;2272849;60;20913;-54
2022/06/03 01:39:49;0.00;0.00;0.62;0.00;0.00;0.62;4.40;3.93;;;27.60;24.00;;;;;;2271672;60;20374;-55
2022/06/03 01:43:27;0.00;0.00;0.62;0.00;0.00;0.62;4.30;3.90;;;27.50;24.00;;;;;;2260577;60;20395;-55
2022/06/03 01:46:28;0.00;0.00;0.62;0.00;0.00;0.62;4.30;3.63;;;27.50;24.10;;;;;;2271577;60;20394;-53
2022/06/03 01:49:55;0.00;0.00;0.62;0.00;0.00;0.62;4.43;4.03;;;27.40;24.10;;;;;;2272942;60;20351;-51
2022/06/03 01:53:13;0.00;0.00;0.62;0.00;0.00;0.62;4.20;3.73;;;27.40;24.10;;;;;;2271556;60;20765;-55
2022/06/03 01:56:56;0.00;0.00;0.62;0.00;0.00;0.62;3.87;3.50;;;27.40;24.10;;;;;;2273153;61;20487;-55
2022/06/03 02:00:15;0.00;0.00;0.62;0.00;0.00;0.62;4.90;4.33;;;27.30;24.10;;;;;;2271369;60;20400;-56
2022/06/03 02:03:35;0.00;0.00;0.62;0.00;0.00;0.62;3.80;3.40;;;27.30;24.20;;;;;;2272623;60;20362;-57
2022/06/03 02:07:11;0.00;0.00;0.62;0.00;0.00;0.62;4.13;3.50;;;27.30;24.20;;;;;;2272262;60;20444;-57
2022/06/03 02:11:05;0.00;0.00;0.62;0.00;0.00;0.62;4.60;4.20;;;27.20;24.20;;;;;;2272918;60;20496;-57
2022/06/03 02:14:30;0.00;0.00;0.62;0.00;0.00;0.62;4.03;3.40;;;27.20;24.20;;;;;;2272413;60;20403;-54
2022/06/03 02:17:41;0.00;0.00;0.62;0.00;0.00;0.62;3.60;3.30;;;27.20;24.20;;;;;;2272678;60;20401;-51
2022/06/03 02:21:07;0.00;0.00;0.62;0.00;0.00;0.62;4.70;3.43;;;27.10;24.10;;;;;;2272356;60;20358;-55
2022/06/03 02:24:26;0.00;0.00;0.62;0.00;0.00;0.62;4.43;4.03;;;27.00;24.10;;;;;;2272243;60;20363;-56
2022/06/03 02:28:02;0.00;0.00;0.62;0.00;0.00;0.62;3.70;3.33;;;27.00;24.10;;;;;;2272281;60;20382;-56
2022/06/03 02:31:11;0.00;0.00;0.62;0.00;0.00;0.62;3.40;3.10;;;27.00;24.10;;;;;;2271206;60;21140;-55
2022/06/03 02:34:34;0.00;0.00;0.62;0.00;0.00;0.62;3.80;3.37;;;26.90;24.10;;;;;;2272171;60;20404;-54
2022/06/03 02:38:08;0.00;0.00;0.62;0.00;0.00;0.62;7.10;4.37;;;26.90;24.20;;;;;;2271836;61;20752;-55
2022/06/03 02:41:36;0.00;0.00;0.62;0.00;0.00;0.62;4.60;3.70;;;26.80;24.10;;;;;;2256538;61;20356;-49
2022/06/03 02:44:53;0.00;0.00;0.62;0.00;0.00;0.62;5.27;4.10;;;26.80;24.10;;;;;;2257942;61;20485;-54
2022/06/03 02:48:25;0.00;0.00;0.62;0.00;0.00;0.62;3.90;3.60;;;26.70;24.00;;;;;;2259546;61;20361;-57
2022/06/03 02:52:16;0.00;0.00;0.62;0.00;0.00;0.62;3.97;3.57;;;26.60;24.10;;;;;;2258174;61;20368;-60
2022/06/03 02:55:53;0.00;0.00;0.62;0.00;0.00;0.62;4.57;4.17;;;26.50;24.70;;;;;;2247384;61;20431;-56
2022/06/03 02:59:31;0.00;0.00;0.62;0.00;0.00;0.62;4.60;3.60;;;26.40;24.20;;;;;;2241948;61;20457;-56
2022/06/03 03:02:45;0.00;0.00;0.62;0.00;0.00;0.62;4.30;3.70;;;26.30;24.30;;;;;;2231310;62;20450;-52
2022/06/03 03:05:49;0.00;0.00;0.62;0.00;0.00;0.62;3.47;3.17;;;26.30;24.40;;;;;;2234364;61;20987;-55
2022/06/03 03:09:42;0.00;0.00;0.62;0.00;0.00;0.62;3.90;2.90;;;26.20;24.50;;;;;;2248720;61;20364;-51
2022/06/03 03:13:19;0.00;0.00;0.62;0.00;0.00;0.62;4.30;3.60;;;26.20;24.60;;;;;;2260039;61;20391;-52
2022/06/03 03:16:36;0.00;0.00;0.62;0.00;0.00;0.62;5.20;3.60;;;26.10;24.70;;;;;;2251168;61;20421;-57
2022/06/03 03:20:09;0.00;0.00;0.62;0.00;0.00;0.62;3.67;3.37;;;26.10;24.70;;;;;;2263578;61;20915;-53
2022/06/03 03:24:08;0.00;0.00;0.62;0.00;0.00;0.62;6.80;3.73;;;26.00;24.70;;;;;;2262643;61;20462;-50
2022/06/03 03:27:18;0.00;0.00;0.62;0.00;0.00;0.62;4.43;3.70;;;26.00;24.80;;;;;;2262072;61;20474;-53
2022/06/03 03:30:19;0.00;0.00;0.62;0.00;0.00;0.62;4.50;3.23;;;26.00;24.80;;;;;;2259720;61;20367;-53
2022/06/03 03:33:22;0.00;0.00;0.62;0.00;0.00;0.62;3.40;3.10;;;26.00;24.80;;;;;;2263627;61;20910;-54
2022/06/03 03:36:52;0.00;0.00;0.62;0.00;0.00;0.62;4.80;3.97;;;26.00;24.90;;;;;;2265053;60;20386;-51
2022/06/03 03:40:34;0.00;0.00;0.62;0.00;0.00;0.62;3.80;3.07;;;26.00;24.90;;;;;;2272563;60;20399;-52
2022/06/03 03:43:52;0.00;0.00;0.62;0.00;0.00;0.62;4.50;3.50;;;26.00;24.80;;;;;;2271290;60;20362;-53
2022/06/03 03:47:18;0.00;0.00;0.62;0.00;0.00;0.62;4.60;3.50;;;25.90;24.80;;;;;;2272235;60;20459;-53
2022/06/03 03:50:48;0.00;0.00;0.62;0.00;0.00;0.62;3.47;3.10;;;25.90;24.80;;;;;;2272054;60;20472;-57
2022/06/03 03:54:17;0.00;0.00;0.62;0.00;0.00;0.62;5.90;3.40;;;25.90;24.80;;;;;;2272496;60;20403;-51
2022/06/03 03:57:44;0.00;0.00;0.62;0.00;0.00;0.62;3.60;3.13;;;25.90;24.80;;;;;;2272448;60;21023;-55
2022/06/03 04:01:33;0.00;0.00;0.62;0.00;0.00;0.62;3.33;3.00;;;25.90;24.80;;;;;;2272119;60;20803;-51
2022/06/03 04:04:58;0.00;0.00;0.62;0.00;0.00;0.62;3.60;3.23;;;25.90;24.90;;;;;;2272422;60;20424;-51
2022/06/03 04:08:20;0.00;0.00;0.62;0.00;0.00;0.62;3.10;2.80;;;25.80;24.80;;;;;;2272382;60;20405;-53
2022/06/03 04:11:43;0.00;0.00;0.62;0.00;0.00;0.62;4.20;2.70;;;25.80;24.80;;;;;;2272151;60;20820;-50
2022/06/03 04:15:27;0.00;0.00;0.62;0.00;0.00;0.62;3.83;2.90;;;25.80;24.90;;;;;;2271468;60;20362;-53
2022/06/03 04:19:00;0.00;0.00;0.62;0.00;0.00;0.62;3.17;2.87;;;25.80;24.90;;;;;;2272563;60;20393;-52
2022/06/03 04:22:25;0.00;0.00;0.62;0.00;0.00;0.62;3.30;3.00;;;25.80;24.90;;;;;;2265955;60;20370;-52
2022/06/03 04:25:45;0.00;0.00;0.62;0.00;0.00;0.62;3.60;3.20;;;25.80;24.90;;;;;;2272352;60;20507;-51
2022/06/03 04:28:56;0.00;0.00;0.62;0.00;0.00;0.62;3.43;3.13;;;25.80;24.90;;;;;;2271218;60;20459;-50
2022/06/03 04:32:36;0.00;0.00;0.62;0.00;0.00;0.62;3.47;3.03;;;25.80;24.90;;;;;;2272131;60;20373;-52
2022/06/03 04:36:12;0.00;0.00;0.62;0.00;0.00;0.62;3.20;2.90;;;25.80;24.90;;;;;;2271220;60;20432;-50
2022/06/03 04:40:04;0.00;0.00;0.62;0.00;0.00;0.62;3.47;2.90;;;25.80;24.90;;;;;;2272272;61;20369;-53
2022/06/03 04:43:49;0.00;0.00;0.62;0.00;0.00;0.62;3.17;2.87;;;25.80;24.90;;;;;;2271600;60;20362;-52
2022/06/03 04:47:31;0.00;0.00;0.62;0.00;0.00;0.62;3.53;3.23;;;25.70;24.90;;;;;;2272369;60;20431;-48
2022/06/03 04:51:19;0.00;0.00;0.62;0.00;0.00;0.62;6.40;3.40;;;25.70;24.90;;;;;;2272263;60;20374;-60
2022/06/03 04:54:48;0.00;0.00;0.62;0.00;0.00;0.62;4.40;3.77;;;25.70;24.80;;;;;;2273356;60;20362;-50
2022/06/03 04:58:30;0.00;0.00;0.62;0.00;0.00;0.62;5.97;3.47;;;25.70;24.90;;;;;;2258763;61;20364;-55
2022/06/03 05:01:53;0.00;0.00;0.62;0.00;0.00;0.62;5.90;4.00;;;25.70;24.80;;;;;;2272830;60;20928;-50
2022/06/03 05:05:49;0.00;0.00;0.62;0.00;0.00;0.62;3.93;3.00;;;25.70;24.80;;;;;;2271919;60;20394;-53
2022/06/03 05:09:26;0.00;0.00;0.62;0.00;0.00;0.62;3.77;3.47;;;25.70;24.90;;;;;;2272965;60;20764;-51
2022/06/03 05:13:17;0.00;0.00;0.62;0.00;0.00;0.62;5.00;3.77;;;25.60;24.80;;;;;;2271560;60;20358;-54
2022/06/03 05:16:42;0.00;0.00;0.62;0.00;0.00;0.62;9.23;4.30;;;25.60;24.80;;;;;;2271287;60;20997;-55
2022/06/03 05:20:13;0.00;0.00;0.62;0.00;0.00;0.62;3.83;3.50;;;25.60;24.80;;;;;;2271386;60;20491;-56
2022/06/03 05:23:26;0.00;0.00;0.62;0.00;0.00;0.62;4.17;3.60;;;25.60;24.80;;;;;;2272765;60;20811;-53
2022/06/03 05:26:55;0.00;0.00;0.62;0.00;0.00;0.62;4.63;4.00;;;25.60;24.80;;;;;;2272621;60;20421;-50
2022/06/03 05:30:18;0.00;0.00;0.62;0.00;0.00;0.62;4.00;3.50;;;25.50;24.80;;;;;;2272185;60;20400;-54
2022/06/03 05:33:36;0.00;0.00;0.62;0.00;0.00;0.62;4.53;3.97;;;25.50;24.80;;;;;;2273005;60;20919;-54
2022/06/03 05:36:56;0.00;0.00;0.62;0.00;0.00;0.62;5.50;3.77;;;25.50;24.80;;;;;;2272046;60;20378;-49
2022/06/03 05:40:28;0.00;0.00;0.62;0.00;0.00;0.62;4.63;3.70;;;25.50;24.80;;;;;;2273086;60;20492;-51
2022/06/03 05:43:55;0.00;0.00;0.62;0.00;0.00;0.62;4.47;3.70;;;25.50;24.90;;;;;;2270010;60;20804;-57
2022/06/03 05:46:57;0.00;0.00;0.62;0.00;0.00;0.62;6.50;4.00;;;25.50;24.80;;;;;;2273006;60;20410;-50
2022/06/03 05:49:52;0.00;0.00;0.62;0.00;0.00;0.62;6.20;4.17;;;25.50;24.90;;;;;;2271805;60;20438;-54
2022/06/03 05:52:55;0.00;0.00;0.62;0.00;0.00;0.62;4.67;4.23;;;25.50;24.80;;;;;;2273062;60;20401;-53
2022/06/03 05:55:51;0.00;0.00;0.62;0.00;0.00;0.62;4.93;4.27;;;25.40;24.80;;;;;;2272469;60;20531;-51
2022/06/03 05:58:48;0.00;0.00;0.62;0.00;0.00;0.62;5.47;4.17;;;25.40;24.80;;;;;;2272595;60;20428;-55
2022/06/03 06:01:47;0.00;0.00;0.62;0.00;0.00;0.62;5.53;4.10;;;25.40;24.80;;;;;;2272473;61;20917;-54
2022/06/03 06:04:56;0.00;0.00;0.62;0.00;0.00;0.62;6.20;4.87;;;25.40;24.70;;;;;;2271631;60;20936;-55
2022/06/03 06:07:50;0.00;0.00;0.62;0.00;0.00;0.62;6.67;4.90;;;25.40;24.70;;;;;;2272878;60;20474;-49
2022/06/03 06:10:49;0.00;0.00;0.62;0.00;0.00;0.62;6.00;4.87;;;25.40;24.80;;;;;;2270829;60;20451;-52
2022/06/03 06:13:54;0.00;0.00;0.62;0.00;0.00;0.62;5.33;4.60;;;25.40;24.70;;;;;;2272570;60;20389;-52
2022/06/03 06:16:41;0.00;0.00;0.62;0.00;0.00;0.62;6.10;4.73;;;25.40;24.70;;;;;;2272331;60;20385;-52
2022/06/03 06:19:43;0.00;0.00;0.62;0.00;0.00;0.62;5.10;3.67;;;25.40;24.70;;;;;;2271841;60;20827;-55
2022/06/03 06:22:30;0.00;0.00;0.62;0.00;0.00;0.62;4.20;3.70;;;25.30;24.70;;;;;;2272491;60;20358;-54
2022/06/03 06:25:28;0.00;0.00;0.62;0.00;0.00;0.62;4.53;3.70;;;25.30;24.70;;;;;;2272772;60;20972;-57
2022/06/03 06:28:31;0.00;0.00;0.62;0.00;0.00;0.62;4.40;3.97;;;25.30;24.70;;;;;;2272664;60;20401;-54
2022/06/03 06:31:50;0.00;0.00;0.62;0.00;0.00;0.62;6.30;4.40;;;25.30;24.70;;;;;;2271879;60;20400;-49
2022/06/03 06:35:02;0.00;0.00;0.62;0.00;0.00;0.62;4.73;3.50;;;25.30;24.70;;;;;;2272061;60;20932;-53
2022/06/03 06:38:04;0.00;0.00;0.62;0.00;0.00;0.62;7.03;3.80;;;25.30;24.70;;;;;;2272280;60;20362;-51
2022/06/03 06:41:10;0.00;0.00;0.62;0.00;0.00;0.62;4.63;3.90;;;25.20;24.60;;;;;;2271761;60;20404;-56
2022/06/03 06:44:07;0.00;0.00;0.62;0.00;0.00;0.62;4.33;2.93;;;25.30;24.70;;;;;;2272470;60;20612;-52
2022/06/03 06:47:04;0.00;0.00;0.62;0.00;0.00;0.62;4.20;3.30;;;25.20;24.60;;;;;;2272999;60;20455;-51
2022/06/03 06:50:06;0.00;0.00;0.62;0.00;0.00;0.62;3.60;2.60;;;25.20;24.60;;;;;;2271943;61;20377;-56
2022/06/03 06:53:02;0.00;0.00;0.62;0.00;0.00;0.62;4.83;3.47;;;25.20;24.60;;;;;;2273109;60;20385;-51
2022/06/03 06:55:56;0.00;0.00;0.62;0.00;0.00;0.62;3.40;2.27;;;25.20;24.60;;;;;;2271992;60;20385;-53
2022/06/03 06:58:50;0.00;0.00;0.62;0.00;0.00;0.62;3.13;2.80;;;25.20;24.60;;;;;;2272480;60;20412;-49
2022/06/03 07:01:39;0.00;0.00;0.62;0.00;0.00;0.62;3.73;2.60;;;25.20;24.60;;;;;;2272131;60;20359;-57
2022/06/03 07:04:29;0.00;0.00;0.62;0.00;0.00;0.62;3.37;2.40;;;25.20;24.60;;;;;;2271700;61;20389;-54
2022/06/03 07:07:25;0.00;0.00;0.62;0.00;0.00;0.62;2.90;2.60;;;25.20;24.60;;;;;;2272787;61;20954;-51
2022/06/03 07:10:18;0.00;0.00;0.62;0.00;0.00;0.62;2.50;2.30;;;25.20;24.60;;;;;;2272414;60;20492;-57
2022/06/03 07:13:11;0.00;0.00;0.62;0.00;0.00;0.62;3.27;2.77;;;25.20;24.50;;;;;;2272493;60;20365;-48
2022/06/03 07:16:08;0.00;0.00;0.62;0.00;0.00;0.62;2.70;2.43;;;25.20;24.60;;;;;;2272372;60;20933;-55
2022/06/03 07:22:19;0.00;0.00;0.62;0.00;0.00;0.62;2.60;2.23;;;25.10;24.60;;;;;;2272556;60;20391;-56
2022/06/03 07:25:12;0.00;0.00;0.62;0.00;0.00;0.62;2.40;1.77;;;25.10;24.60;;;;;;2271754;61;20393;-53
2022/06/03 07:28:09;0.00;0.00;0.62;0.00;0.00;0.62;3.47;2.40;;;25.10;24.70;;;;;;2272577;60;20516;-50
2022/06/03 07:31:02;0.00;0.00;0.62;0.00;0.00;0.62;3.13;2.30;;;25.10;24.70;;;;;;2272406;60;20893;-55
2022/06/03 07:33:57;0.00;0.00;0.62;0.00;0.00;0.62;2.20;1.80;;;25.10;24.80;;;;;;2271851;60;20781;-56
2022/06/03 07:36:50;0.00;0.00;0.62;0.00;0.00;0.62;1.97;1.70;;;25.10;24.80;;;;;;2272646;60;20414;-57
2022/06/03 07:39:48;0.00;0.00;0.62;0.00;0.00;0.62;2.13;1.73;;;25.10;24.80;;;;;;2271521;60;20398;-55
2022/06/03 07:42:43;0.00;0.00;0.62;0.00;0.00;0.62;2.20;1.77;;;25.10;24.90;;;;;;2271573;60;20362;-56
2022/06/03 07:45:45;0.00;0.00;0.62;0.00;0.00;0.62;2.27;1.63;;;25.10;24.90;;;;;;2272364;60;20466;-55
2022/06/03 07:48:33;0.00;0.00;0.62;0.00;0.00;0.62;1.87;1.60;;;25.20;24.90;;;;;;2271521;60;20369;-49
2022/06/03 07:51:25;0.00;0.00;0.62;0.00;0.00;0.62;2.40;1.87;;;25.20;24.90;;;;;;2272352;60;20917;-52
2022/06/03 07:54:17;0.00;0.00;0.62;0.00;0.00;0.62;2.63;1.70;;;25.20;24.90;;;;;;2272134;60;20350;-53
2022/06/03 07:57:08;0.00;0.00;0.62;0.00;0.00;0.62;1.80;1.50;;;25.20;25.00;;;;;;2272210;60;20393;-53
2022/06/03 07:59:57;0.00;0.00;0.62;0.00;0.00;0.62;2.17;1.80;;;25.20;25.00;;;;;;2272663;60;20760;-55
2022/06/03 08:02:44;0.00;0.00;0.62;0.00;0.00;0.62;2.30;1.70;;;25.30;25.00;;;;;;2271788;60;20381;-58
2022/06/03 08:05:30;0.00;0.00;0.62;0.00;0.00;0.62;3.27;1.50;;;25.30;25.00;;;;;;2272373;60;20474;-53
2022/06/03 08:11:28;0.00;0.00;0.62;0.00;0.00;0.62;2.17;1.37;;;25.30;25.00;;;;;;2271735;60;21307;-52
2022/06/03 08:14:13;0.00;0.00;0.62;0.00;0.00;0.62;2.27;1.60;;;25.40;25.10;;;;;;2272727;60;20456;-55
2022/06/03 08:17:02;0.00;0.00;0.62;0.00;0.00;0.62;2.40;1.87;;;25.40;25.00;;;;;;2271764;60;20519;-55
2022/06/03 08:19:48;0.00;0.00;0.62;0.00;0.00;0.62;1.90;1.70;;;25.40;25.10;;;;;;2272125;61;20412;-56
2022/06/03 08:22:33;0.00;0.00;0.62;0.00;0.00;0.62;2.50;2.30;;;25.40;25.10;;;;;;2272331;60;20394;-55
2022/06/03 08:25:25;0.00;0.00;0.62;0.00;0.00;0.62;2.17;1.67;;;25.50;25.10;;;;;;2271780;60;20861;-56
2022/06/03 08:28:14;0.00;0.00;0.62;0.00;0.00;0.62;2.70;1.90;;;25.40;24.90;;;;;;2272533;61;20909;-54
2022/06/03 08:31:03;0.00;0.00;0.62;0.00;0.00;0.62;3.20;1.90;;;25.50;24.90;;;;;;2273124;61;20446;-52
2022/06/03 08:33:51;0.00;0.00;0.62;0.00;0.00;0.62;3.33;2.30;;;25.50;24.90;;;;;;2272478;61;20453;-57
2022/06/03 08:36:41;0.00;0.00;0.62;0.00;0.00;0.62;2.90;2.20;;;25.50;24.80;;;;;;2272882;61;20929;-60
2022/06/03 08:39:30;0.00;0.00;0.62;0.00;0.00;0.62;2.50;2.20;;;25.50;24.80;;;;;;2272398;61;20390;-53
2022/06/03 08:42:30;0.00;0.00;0.62;0.00;0.00;0.62;2.70;2.00;;;25.50;24.80;;;;;;2272663;61;20373;-61
2022/06/03 08:45:27;0.00;0.00;0.62;0.00;0.00;0.62;3.50;2.30;;;25.50;24.70;;;;;;2272745;61;20373;-55
2022/06/03 08:48:14;0.00;0.00;0.62;0.00;0.00;0.62;2.50;2.30;;;25.50;24.70;;;;;;2271904;61;20436;-57
2022/06/03 08:51:06;0.00;0.00;0.62;0.00;0.00;0.62;3.50;1.93;;;25.60;24.60;;;;;;2273037;61;20358;-52
2022/06/03 08:53:59;0.00;0.00;0.62;0.00;0.00;0.62;2.07;1.87;;;25.50;24.50;;;;;;2272649;61;20806;-52
2022/06/03 08:56:47;0.00;0.00;0.62;0.00;0.00;0.62;2.70;2.50;;;25.60;24.50;;;;;;2272934;61;20780;-55
2022/06/03 08:59:38;0.00;0.00;0.62;0.00;0.00;0.62;2.53;2.00;;;25.60;24.50;;;;;;2273270;61;20378;-57
2022/06/03 09:02:37;0.00;0.00;0.62;0.00;0.00;0.62;2.87;1.87;;;25.60;24.50;;;;;;2271860;61;20358;-58
2022/06/03 09:05:29;0.00;0.00;0.62;0.00;0.00;0.62;3.00;2.10;;;25.60;24.50;;;;;;2273207;61;20414;-56
2022/06/03 09:08:22;0.00;0.00;0.62;0.00;0.00;0.62;2.27;1.90;;;25.60;24.40;;;;;;2272880;61;20358;-50
2022/06/03 09:11:18;0.00;0.00;0.62;0.00;0.00;0.62;2.57;2.10;;;25.60;24.40;;;;;;2272599;61;20380;-53
2022/06/03 09:14:08;0.00;0.00;0.62;0.00;0.00;0.62;2.60;2.40;;;25.60;24.30;;;;;;2273291;61;20394;-49
2022/06/03 09:16:58;0.00;0.00;0.62;0.00;0.00;0.62;2.57;2.03;;;25.70;24.20;;;;;;2272222;61;20451;-52
2022/06/03 09:19:46;0.00;0.00;0.62;0.00;0.00;0.62;3.87;2.37;;;25.60;24.00;;;;;;2273096;61;20359;-52
2022/06/03 09:22:31;0.00;0.00;0.62;0.00;0.00;0.62;2.93;2.10;;;25.70;24.00;;;;;;2272861;61;20394;-53
2022/06/03 09:25:18;0.00;0.00;0.62;0.00;0.00;0.62;3.47;2.50;;;25.60;24.00;;;;;;2272243;61;20374;-57
2022/06/03 09:28:12;0.00;0.00;0.62;0.00;0.00;0.62;2.30;2.10;;;25.60;24.00;;;;;;2273083;61;20432;-53
2022/06/03 09:31:00;0.00;0.00;0.62;0.00;0.00;0.62;2.17;1.87;;;25.60;24.00;;;;;;2271561;61;20363;-57
2022/06/03 09:33:45;0.00;0.00;0.62;0.00;0.00;0.62;2.43;1.83;;;25.60;24.00;;;;;;2272851;61;20361;-60
2022/06/03 09:36:32;0.00;0.00;0.62;0.00;0.00;0.62;2.13;1.93;;;25.60;24.00;;;;;;2273244;61;20378;-52
2022/06/03 09:39:19;0.00;0.00;0.62;0.00;0.00;0.62;2.93;1.80;;;25.60;24.00;;;;;;2271925;60;20651;-54
2022/06/03 09:42:04;0.00;0.00;0.62;0.00;0.00;0.62;2.97;2.43;;;25.60;24.00;;;;;;2273046;61;20377;-53
2022/06/03 09:44:53;0.00;0.00;0.62;0.00;0.00;0.62;3.07;1.97;;;25.70;23.90;;;;;;2272777;61;20416;-56
2022/06/03 09:47:38;0.00;0.00;0.62;0.00;0.00;0.62;2.87;1.97;;;25.60;23.90;;;;;;2272498;61;20960;-54
2022/06/03 09:50:25;0.00;0.00;0.62;0.00;0.00;0.62;2.70;2.50;;;25.70;23.90;;;;;;2272743;61;20370;-55
2022/06/03 09:53:10;0.00;0.00;0.62;0.00;0.00;0.62;2.23;1.83;;;25.70;23.80;;;;;;2272199;61;20411;-52
2022/06/03 09:56:00;0.00;0.00;0.62;0.00;0.00;0.62;2.10;1.90;;;25.70;23.80;;;;;;2272996;61;20382;-51
2022/06/03 09:58:47;0.00;0.00;0.62;0.00;0.00;0.62;2.83;2.00;;;25.70;23.80;;;;;;2272868;61;20416;-54
2022/06/03 10:01:34;0.00;0.00;0.62;0.00;0.00;0.62;3.37;2.23;;;25.70;23.80;;;;;;2271854;61;20376;-64
2022/06/03 10:04:22;0.00;0.00;0.62;0.00;0.00;0.62;3.67;2.30;;;25.70;23.70;;;;;;2273014;61;20768;-56
2022/06/03 10:07:07;0.00;0.00;0.62;0.00;0.00;0.62;2.93;2.20;;;25.70;23.80;;;;;;2272789;61;20440;-55
2022/06/03 10:12:59;0.00;0.00;0.62;0.00;0.00;0.62;2.67;2.03;;;25.70;24.50;;;;;;2272785;61;20358;-57
2022/06/03 10:15:50;0.00;0.00;0.62;0.00;0.00;0.62;2.20;1.80;;;25.70;24.00;;;;;;2272294;61;20374;-58
2022/06/03 10:18:39;0.00;0.00;0.62;0.00;0.00;0.62;1.90;1.60;;;25.70;24.10;;;;;;2272562;61;20354;-59
2022/06/03 10:21:33;0.00;0.00;0.62;0.00;0.00;0.62;3.20;1.90;;;25.70;24.10;;;;;;2271899;61;20882;-58
2022/06/03 10:24:21;0.00;0.00;0.62;0.00;0.00;0.62;3.43;1.70;;;25.70;24.20;;;;;;2272041;61;20366;-59
2022/06/03 10:27:06;0.00;0.00;0.62;0.00;0.00;0.62;1.63;1.53;;;25.70;24.20;;;;;;2272820;61;20937;-56
2022/06/03 10:29:51;0.00;0.00;0.62;0.00;0.00;0.62;2.20;1.57;;;25.70;24.20;;;;;;2272579;61;20760;-59
2022/06/03 10:32:36;0.00;0.00;0.62;0.00;0.00;0.62;2.20;1.93;;;25.80;24.30;;;;;;2272195;61;20415;-55
2022/06/03 10:35:28;0.00;0.00;0.62;0.00;0.00;0.62;2.07;1.83;;;25.80;24.30;;;;;;2272756;61;20431;-54
2022/06/03 10:38:17;0.00;0.00;0.62;0.00;0.00;0.62;7.87;1.77;;;25.80;24.30;;;;;;2272090;61;20355;-57
2022/06/03 10:41:05;0.00;0.00;0.62;0.00;0.00;0.62;1.70;1.60;;;25.80;24.30;;;;;;2272466;61;20428;-58
2022/06/03 10:43:50;0.00;0.00;0.62;0.00;0.00;0.62;3.10;1.83;;;25.80;24.40;;;;;;2272379;61;20917;-58
2022/06/03 10:46:35;0.00;0.00;0.62;0.00;0.00;0.62;2.20;1.57;;;25.80;24.40;;;;;;2271882;61;21009;-56
2022/06/03 10:49:22;0.00;0.00;0.62;0.00;0.00;0.62;1.93;1.70;;;25.90;24.40;;;;;;2272288;60;21016;-55
2022/06/03 11:01:51;0.00;0.00;0.62;0.00;0.00;0.62;2.00;1.73;;;26.00;24.60;;;;;;2271862;61;20841;-61
2022/06/03 11:04:39;0.00;0.00;0.62;0.00;0.00;0.62;2.20;2.00;;;26.00;24.60;;;;;;2272983;61;20913;-56
2022/06/03 11:07:29;0.00;0.00;0.62;0.00;0.00;0.62;1.77;1.57;;;26.00;24.60;;;;;;2271784;61;20799;-57
2022/06/03 11:10:16;0.00;0.00;0.62;0.00;0.00;0.62;2.37;1.90;;;26.00;24.60;;;;;;2272341;61;20397;-54
2022/06/03 11:13:03;0.00;0.00;0.62;0.00;0.00;0.62;1.83;1.40;;;26.00;24.60;;;;;;2272861;61;20354;-55
2022/06/03 11:15:48;0.00;0.00;0.62;0.00;0.00;0.62;1.67;1.50;;;26.10;24.70;;;;;;2271652;61;20477;-57
2022/06/03 11:18:34;0.00;0.00;0.62;0.00;0.00;0.62;1.70;1.40;;;26.10;24.60;;;;;;2272774;61;20350;-53
2022/06/03 11:21:25;0.00;0.00;0.62;0.00;0.00;0.62;2.43;1.83;;;26.10;24.70;;;;;;2272242;61;20359;-59
2022/06/03 11:24:12;0.00;0.00;0.62;0.00;0.00;0.62;1.73;1.60;;;26.10;24.70;;;;;;2271923;61;20777;-58
2022/06/03 11:26:57;0.00;0.00;0.62;0.00;0.00;0.62;1.87;1.60;;;26.20;24.70;;;;;;2272707;61;20423;-55
2022/06/03 11:29:47;0.00;0.00;0.62;0.00;0.00;0.62;2.30;1.73;;;26.20;24.70;;;;;;2271738;61;20361;-52
2022/06/03 11:32:35;0.00;0.00;0.62;0.00;0.00;0.62;2.60;2.13;;;26.20;24.70;;;;;;2272419;61;20459;-53
2022/06/03 11:35:28;0.00;0.00;0.62;0.00;0.00;0.62;1.67;1.53;;;26.30;24.80;;;;;;2272835;61;20421;-57
2022/06/03 11:38:20;0.00;0.00;0.62;0.00;0.00;0.62;2.07;1.60;;;26.30;24.80;;;;;;2271642;61;20354;-55
2022/06/03 11:41:16;0.00;0.00;0.62;0.00;0.00;0.62;2.50;1.30;;;26.30;24.80;;;;;;2272370;61;20443;-55
2022/06/03 11:44:08;0.00;0.00;0.62;0.00;0.00;0.62;1.80;1.60;;;26.30;25.30;;;;;;2272384;61;20358;-59
2022/06/03 11:46:57;0.00;0.00;0.62;0.00;0.00;0.62;2.03;1.83;;;26.30;24.70;;;;;;2272491;61;20409;-55
2022/06/03 11:49:42;0.00;0.00;0.62;0.00;0.00;0.62;1.80;1.57;;;26.40;24.80;;;;;;2272784;61;20374;-56
2022/06/03 11:52:27;0.00;0.00;0.62;0.00;0.00;0.62;1.70;1.37;;;26.40;24.80;;;;;;2271455;61;20401;-56
2022/06/03 11:55:12;0.00;0.00;0.62;0.00;0.00;0.62;2.70;1.50;;;26.50;24.80;;;;;;2272954;61;20358;-55
2022/06/03 11:58:05;0.00;0.00;0.62;0.00;0.00;0.62;2.73;1.87;;;26.50;24.80;;;;;;2272489;61;20406;-58
2022/06/03 12:00:55;0.00;0.00;0.62;0.00;0.00;0.62;1.70;1.40;;;26.50;24.80;;;;;;2271550;61;20956;-59
2022/06/03 12:03:52;0.00;0.00;0.62;0.00;0.00;0.62;1.87;1.53;;;26.60;24.80;;;;;;2272898;61;20358;-56
2022/06/03 12:06:44;0.00;0.00;0.62;0.00;0.00;0.62;1.60;1.50;;;26.60;24.80;;;;;;2272564;61;20430;-53
2022/06/03 12:09:45;0.00;0.00;0.62;0.00;0.00;0.62;2.87;2.00;;;26.60;24.80;;;;;;2273368;61;20357;-56
2022/06/03 12:16:11;0.00;0.00;0.62;0.00;0.00;0.62;1.87;1.60;;;26.70;24.80;;;;;;2272853;61;20370;-55
2022/06/03 12:19:03;0.00;0.00;0.62;0.00;0.00;0.62;1.60;1.20;;;26.70;24.80;;;;;;2273320;61;20905;-55
2022/06/03 12:21:56;0.00;0.00;0.62;0.00;0.00;0.62;2.37;1.80;;;26.80;24.90;;;;;;2272068;61;20770;-58
2022/06/03 12:24:47;0.00;0.00;0.62;0.00;0.00;0.62;1.97;1.70;;;26.80;24.90;;;;;;2273395;61;20376;-56
2022/06/03 12:27:36;0.00;0.00;0.62;0.00;0.00;0.62;1.90;1.70;;;26.80;24.90;;;;;;2272988;61;20405;-55
2022/06/03 12:30:45;0.00;0.00;0.62;0.00;0.00;0.62;1.90;1.60;;;26.80;24.80;;;;;;2272547;61;20362;-59
2022/06/03 12:33:46;0.00;0.00;0.62;0.00;0.00;0.62;1.70;1.50;;;26.80;24.80;;;;;;2273234;61;20544;-57
2022/06/03 12:36:37;0.00;0.00;0.62;0.00;0.00;0.62;1.67;1.53;;;26.90;24.90;;;;;;2272460;61;20515;-54